Aérodrome :
LOGIN :

S'inscrire | Disclaimer

   EN    FR    IT 

 










Légende :    VFR   VFR Marginal   IFR   IFR Intensif   IFR Très Intensif
Visi : 
Plafond : 
>= 8 km
>= 3000ft
5 à 8 km
1000 à 3000 ft
1500m à 5 km
500 à 1000 ft
800 à 1500m
200 à 500 ft
< 800m
< 200 ft
Symboles :   Orages  Brouillard  Fortes neiges  Fortes précipitations  Vent > 20 kt
SIGMETs :   Divers  Orages  Givrage  Turbulence  Onde Orograph.  Cendres Volcan.






- Altitude de l'aérodrome : 885 ft
- Code IATA : BAS


LFSB - Bale-Mulhouse

DERNIER METAR :
  • 182000Z AUTO 31005KT 280V350 9999 SCT033/// BKN045/// BKN056/// ///CB 10/06 Q1017 TEMPO 4000 SHRA

METARs EXPIRÉS :
  • 181930Z AUTO 35009KT 9999 BKN037/// BKN062/// BKN076/// ///CB 10/07 Q1017 TEMPO 4000 SHRA BECMG 28010KT
  • 181900Z AUTO 35013KT 320V020 9999 SCT035/// SCT042/// BKN056/// ///CB 11/06 Q1016 TEMPO 4000 SHRA
  • 181830Z AUTO 33007KT 9999 FEW048 BKN088 BKN110 13/07 Q1015 TEMPO 4000 SHRA SCT035TCU FEW040CB
  • 181800Z AUTO 31008KT 9999 ///TCU 14/07 Q1015 TEMPO 4000 SHRA SCT040CB
  • 181730Z AUTO 30008KT 9999 FEW056/// SCT086/// BKN110/// ///TCU 14/07 Q1015 TEMPO 4000 SHRA FEW040CB

TAF AMD TAF LFSB
Valide du 18 à 18h jusqu'au 19 à 18h UTC


181742Z 1818/1918 28010KT 9999 FEW040 SCT060
TEMPO 1818/1822 4000 SHRA SCT035TCU FEW040CB
PROB40
TEMPO 1818/1820 TS SCT040CB
PROB30
TEMPO 1822/1910 -SHRA FEW030TCU
TEMPO 1910/1918 4000 SHRA SCT025TCU BKN060
PROB30
TEMPO 1910/1915 TS FEW030CB
Météo : +33 3 89 90 31 11



MET'MAP, la Météo Aéronautique d'un coup d'oeil ! - Copyright ORBIFLY Décembre 2007 - Disclaimer

ORBIFLY MET'MAP TEAM :

Programmation & Développement : Alexandra Zaïnal
Sur une idée originale de : Baudouin d'Aumeries
Assistance à la programmation : Marc-Olivier Méhu
Soutien technique & logistique : Manuel Goepfert

Contact : metmap@orbifly.com




SOURCES & CREDITS :

   NOAA